sensor_id;sensor_type;location;lat;lon;timestamp;P1;durP1;ratioP1;P2;durP2;ratioP2
76591;SDS011;65481;47.600;19.682;2023-12-14T00:02:54;19.60;;;9.40;;
76591;SDS011;65481;47.600;19.682;2023-12-14T00:07:54;22.23;;;8.57;;
76591;SDS011;65481;47.600;19.682;2023-12-14T00:12:55;23.30;;;9.63;;
76591;SDS011;65481;47.600;19.682;2023-12-14T00:17:56;21.15;;;9.90;;
76591;SDS011;65481;47.600;19.682;2023-12-14T00:22:57;23.83;;;10.13;;
76591;SDS011;65481;47.600;19.682;2023-12-14T00:27:57;22.85;;;10.77;;
76591;SDS011;65481;47.600;19.682;2023-12-14T00:32:58;21.10;;;9.57;;
76591;SDS011;65481;47.600;19.682;2023-12-14T00:37:58;22.42;;;9.30;;
76591;SDS011;65481;47.600;19.682;2023-12-14T00:42:59;15.43;;;7.43;;
76591;SDS011;65481;47.600;19.682;2023-12-14T00:47:59;24.50;;;8.43;;
76591;SDS011;65481;47.600;19.682;2023-12-14T00:53:00;24.30;;;8.35;;
76591;SDS011;65481;47.600;19.682;2023-12-14T00:58:00;22.02;;;8.13;;
76591;SDS011;65481;47.600;19.682;2023-12-14T01:03:01;23.63;;;9.00;;
76591;SDS011;65481;47.600;19.682;2023-12-14T01:08:01;25.73;;;8.05;;
76591;SDS011;65481;47.600;19.682;2023-12-14T01:13:02;19.13;;;7.97;;
76591;SDS011;65481;47.600;19.682;2023-12-14T01:18:03;28.83;;;8.25;;
76591;SDS011;65481;47.600;19.682;2023-12-14T01:23:03;29.65;;;9.05;;
76591;SDS011;65481;47.600;19.682;2023-12-14T01:28:05;27.23;;;9.15;;
76591;SDS011;65481;47.600;19.682;2023-12-14T01:33:06;25.33;;;9.77;;
76591;SDS011;65481;47.600;19.682;2023-12-14T01:38:06;25.45;;;10.27;;
76591;SDS011;65481;47.600;19.682;2023-12-14T01:43:08;21.40;;;8.05;;
76591;SDS011;65481;47.600;19.682;2023-12-14T01:48:10;15.65;;;6.75;;
76591;SDS011;65481;47.600;19.682;2023-12-14T01:53:11;11.02;;;5.65;;
76591;SDS011;65481;47.600;19.682;2023-12-14T01:58:11;12.30;;;5.65;;
76591;SDS011;65481;47.600;19.682;2023-12-14T02:03:12;10.57;;;4.63;;
76591;SDS011;65481;47.600;19.682;2023-12-14T02:08:12;12.25;;;4.90;;
76591;SDS011;65481;47.600;19.682;2023-12-14T02:13:13;8.77;;;4.35;;
76591;SDS011;65481;47.600;19.682;2023-12-14T02:18:14;11.27;;;4.28;;
76591;SDS011;65481;47.600;19.682;2023-12-14T02:23:15;8.45;;;4.38;;
76591;SDS011;65481;47.600;19.682;2023-12-14T02:28:15;9.77;;;4.15;;
76591;SDS011;65481;47.600;19.682;2023-12-14T02:33:15;9.88;;;4.55;;
76591;SDS011;65481;47.600;19.682;2023-12-14T02:38:16;9.18;;;4.85;;
76591;SDS011;65481;47.600;19.682;2023-12-14T02:43:16;10.13;;;4.60;;
76591;SDS011;65481;47.600;19.682;2023-12-14T02:48:17;9.57;;;3.92;;
76591;SDS011;65481;47.600;19.682;2023-12-14T02:53:17;8.52;;;3.53;;
76591;SDS011;65481;47.600;19.682;2023-12-14T02:58:18;8.82;;;4.13;;
76591;SDS011;65481;47.600;19.682;2023-12-14T03:03:19;10.25;;;4.05;;
76591;SDS011;65481;47.600;19.682;2023-12-14T03:08:19;12.73;;;4.65;;
76591;SDS011;65481;47.600;19.682;2023-12-14T03:13:20;6.68;;;3.33;;
76591;SDS011;65481;47.600;19.682;2023-12-14T03:18:20;5.75;;;3.30;;
76591;SDS011;65481;47.600;19.682;2023-12-14T03:23:21;5.80;;;2.85;;
76591;SDS011;65481;47.600;19.682;2023-12-14T03:28:21;7.70;;;3.30;;
76591;SDS011;65481;47.600;19.682;2023-12-14T03:33:23;9.88;;;3.60;;
76591;SDS011;65481;47.600;19.682;2023-12-14T03:38:23;5.43;;;3.25;;
76591;SDS011;65481;47.600;19.682;2023-12-14T03:43:24;8.27;;;4.70;;
76591;SDS011;65481;47.600;19.682;2023-12-14T03:48:25;12.57;;;4.47;;
76591;SDS011;65481;47.600;19.682;2023-12-14T03:53:25;10.48;;;4.97;;
76591;SDS011;65481;47.600;19.682;2023-12-14T03:58:27;10.88;;;4.32;;
76591;SDS011;65481;47.600;19.682;2023-12-14T04:03:27;9.80;;;4.07;;
76591;SDS011;65481;47.600;19.682;2023-12-14T04:08:28;10.13;;;3.25;;
76591;SDS011;65481;47.600;19.682;2023-12-14T04:13:28;8.35;;;3.95;;
76591;SDS011;65481;47.600;19.682;2023-12-14T04:18:29;6.82;;;3.22;;
76591;SDS011;65481;47.600;19.682;2023-12-14T04:23:29;9.52;;;4.15;;
76591;SDS011;65481;47.600;19.682;2023-12-14T04:28:30;11.15;;;5.47;;
76591;SDS011;65481;47.600;19.682;2023-12-14T04:33:30;10.02;;;4.18;;
76591;SDS011;65481;47.600;19.682;2023-12-14T04:38:32;10.35;;;4.38;;
76591;SDS011;65481;47.600;19.682;2023-12-14T04:43:32;10.65;;;4.68;;
76591;SDS011;65481;47.600;19.682;2023-12-14T04:48:33;8.75;;;4.07;;
76591;SDS011;65481;47.600;19.682;2023-12-14T04:53:34;9.00;;;3.58;;
76591;SDS011;65481;47.600;19.682;2023-12-14T04:58:35;8.23;;;4.25;;
76591;SDS011;65481;47.600;19.682;2023-12-14T05:03:36;10.90;;;4.82;;
76591;SDS011;65481;47.600;19.682;2023-12-14T05:08:36;10.88;;;4.22;;
76591;SDS011;65481;47.600;19.682;2023-12-14T05:13:36;12.00;;;4.43;;
76591;SDS011;65481;47.600;19.682;2023-12-14T05:18:37;16.08;;;5.65;;
76591;SDS011;65481;47.600;19.682;2023-12-14T05:23:38;15.25;;;5.88;;
76591;SDS011;65481;47.600;19.682;2023-12-14T05:28:39;13.75;;;5.50;;
76591;SDS011;65481;47.600;19.682;2023-12-14T05:33:39;18.25;;;5.97;;
76591;SDS011;65481;47.600;19.682;2023-12-14T05:38:41;16.13;;;5.60;;
76591;SDS011;65481;47.600;19.682;2023-12-14T05:43:42;13.70;;;5.55;;
76591;SDS011;65481;47.600;19.682;2023-12-14T05:48:42;19.45;;;6.75;;
76591;SDS011;65481;47.600;19.682;2023-12-14T05:53:43;16.90;;;5.68;;
76591;SDS011;65481;47.600;19.682;2023-12-14T05:58:44;17.52;;;5.60;;
76591;SDS011;65481;47.600;19.682;2023-12-14T06:03:45;13.98;;;5.18;;
76591;SDS011;65481;47.600;19.682;2023-12-14T06:08:46;13.27;;;5.25;;
76591;SDS011;65481;47.600;19.682;2023-12-14T06:13:46;13.27;;;5.28;;
76591;SDS011;65481;47.600;19.682;2023-12-14T06:18:47;18.80;;;6.70;;
76591;SDS011;65481;47.600;19.682;2023-12-14T06:23:47;21.17;;;7.70;;
76591;SDS011;65481;47.600;19.682;2023-12-14T06:28:48;21.25;;;8.00;;
76591;SDS011;65481;47.600;19.682;2023-12-14T06:33:49;22.15;;;8.38;;
76591;SDS011;65481;47.600;19.682;2023-12-14T06:38:50;22.98;;;8.02;;
76591;SDS011;65481;47.600;19.682;2023-12-14T06:43:50;32.05;;;9.70;;
76591;SDS011;65481;47.600;19.682;2023-12-14T06:48:52;18.80;;;7.03;;
76591;SDS011;65481;47.600;19.682;2023-12-14T06:53:53;22.65;;;7.53;;
76591;SDS011;65481;47.600;19.682;2023-12-14T06:58:54;23.55;;;6.53;;
76591;SDS011;65481;47.600;19.682;2023-12-14T07:03:54;31.63;;;9.40;;
76591;SDS011;65481;47.600;19.682;2023-12-14T07:08:56;23.85;;;6.82;;
76591;SDS011;65481;47.600;19.682;2023-12-14T07:13:57;25.65;;;7.90;;
76591;SDS011;65481;47.600;19.682;2023-12-14T07:18:57;22.60;;;7.90;;
76591;SDS011;65481;47.600;19.682;2023-12-14T07:23:58;30.35;;;10.25;;
76591;SDS011;65481;47.600;19.682;2023-12-14T07:28:59;23.10;;;7.57;;
76591;SDS011;65481;47.600;19.682;2023-12-14T07:34:00;17.85;;;5.65;;
76591;SDS011;65481;47.600;19.682;2023-12-14T07:39:00;16.10;;;5.82;;
76591;SDS011;65481;47.600;19.682;2023-12-14T07:44:01;47.90;;;14.43;;
76591;SDS011;65481;47.600;19.682;2023-12-14T07:49:02;29.73;;;9.20;;
76591;SDS011;65481;47.600;19.682;2023-12-14T07:54:03;19.42;;;6.97;;
76591;SDS011;65481;47.600;19.682;2023-12-14T07:59:05;19.92;;;7.93;;
76591;SDS011;65481;47.600;19.682;2023-12-14T08:04:07;23.15;;;7.63;;
76591;SDS011;65481;47.600;19.682;2023-12-14T08:09:08;26.27;;;9.32;;
76591;SDS011;65481;47.600;19.682;2023-12-14T08:14:09;21.23;;;9.13;;
76591;SDS011;65481;47.600;19.682;2023-12-14T08:19:10;26.67;;;11.95;;
76591;SDS011;65481;47.600;19.682;2023-12-14T08:24:11;21.35;;;7.20;;
76591;SDS011;65481;47.600;19.682;2023-12-14T08:29:12;24.00;;;9.80;;
76591;SDS011;65481;47.600;19.682;2023-12-14T08:34:12;18.45;;;6.78;;
76591;SDS011;65481;47.600;19.682;2023-12-14T08:39:13;16.83;;;6.10;;
76591;SDS011;65481;47.600;19.682;2023-12-14T08:44:15;18.05;;;6.72;;
76591;SDS011;65481;47.600;19.682;2023-12-14T08:49:15;22.70;;;8.80;;
76591;SDS011;65481;47.600;19.682;2023-12-14T08:54:16;19.27;;;8.13;;
76591;SDS011;65481;47.600;19.682;2023-12-14T08:59:17;20.38;;;7.57;;
76591;SDS011;65481;47.600;19.682;2023-12-14T09:04:20;19.30;;;7.72;;
76591;SDS011;65481;47.600;19.682;2023-12-14T09:09:21;25.17;;;8.30;;
76591;SDS011;65481;47.600;19.682;2023-12-14T09:14:21;16.05;;;6.55;;
76591;SDS011;65481;47.600;19.682;2023-12-14T09:19:22;21.25;;;7.88;;
76591;SDS011;65481;47.600;19.682;2023-12-14T09:24:23;20.15;;;7.63;;
76591;SDS011;65481;47.600;19.682;2023-12-14T09:29:23;19.52;;;8.18;;
76591;SDS011;65481;47.600;19.682;2023-12-14T09:34:24;13.40;;;6.00;;
76591;SDS011;65481;47.600;19.682;2023-12-14T09:39:25;13.77;;;6.00;;
76591;SDS011;65481;47.600;19.682;2023-12-14T09:44:26;11.70;;;5.43;;
76591;SDS011;65481;47.600;19.682;2023-12-14T09:49:28;8.85;;;4.88;;
76591;SDS011;65481;47.600;19.682;2023-12-14T09:54:31;11.60;;;5.80;;
76591;SDS011;65481;47.600;19.682;2023-12-14T09:59:33;13.40;;;5.13;;
76591;SDS011;65481;47.600;19.682;2023-12-14T10:04:34;10.02;;;5.13;;
76591;SDS011;65481;47.600;19.682;2023-12-14T10:09:37;10.60;;;5.30;;
76591;SDS011;65481;47.600;19.682;2023-12-14T10:14:38;18.67;;;7.80;;
76591;SDS011;65481;47.600;19.682;2023-12-14T10:19:44;18.20;;;7.68;;
76591;SDS011;65481;47.600;19.682;2023-12-14T10:24:47;13.23;;;5.97;;
76591;SDS011;65481;47.600;19.682;2023-12-14T10:29:48;10.52;;;5.20;;
76591;SDS011;65481;47.600;19.682;2023-12-14T10:34:51;12.05;;;5.05;;
76591;SDS011;65481;47.600;19.682;2023-12-14T10:39:51;9.75;;;4.80;;
76591;SDS011;65481;47.600;19.682;2023-12-14T10:44:54;14.82;;;5.28;;
76591;SDS011;65481;47.600;19.682;2023-12-14T10:49:55;19.40;;;7.85;;
76591;SDS011;65481;47.600;19.682;2023-12-14T10:55:02;13.43;;;6.30;;
76591;SDS011;65481;47.600;19.682;2023-12-14T11:00:07;11.68;;;5.50;;
76591;SDS011;65481;47.600;19.682;2023-12-14T11:05:12;9.73;;;5.00;;
76591;SDS011;65481;47.600;19.682;2023-12-14T11:10:19;9.20;;;4.68;;
76591;SDS011;65481;47.600;19.682;2023-12-14T11:15:23;13.38;;;6.25;;
76591;SDS011;65481;47.600;19.682;2023-12-14T11:20:24;15.00;;;5.82;;
76591;SDS011;65481;47.600;19.682;2023-12-14T11:25:25;12.05;;;6.03;;
76591;SDS011;65481;47.600;19.682;2023-12-14T11:30:26;13.70;;;5.53;;
76591;SDS011;65481;47.600;19.682;2023-12-14T11:35:26;9.82;;;4.97;;
76591;SDS011;65481;47.600;19.682;2023-12-14T11:40:28;13.32;;;5.55;;
76591;SDS011;65481;47.600;19.682;2023-12-14T11:45:29;13.30;;;5.07;;
76591;SDS011;65481;47.600;19.682;2023-12-14T11:50:31;11.05;;;5.43;;
76591;SDS011;65481;47.600;19.682;2023-12-14T11:55:34;11.95;;;5.40;;
76591;SDS011;65481;47.600;19.682;2023-12-14T12:00:36;10.15;;;5.53;;
76591;SDS011;65481;47.600;19.682;2023-12-14T12:10:48;14.85;;;6.25;;
76591;SDS011;65481;47.600;19.682;2023-12-14T12:15:49;10.23;;;5.03;;
76591;SDS011;65481;47.600;19.682;2023-12-14T12:20:50;16.00;;;6.68;;
76591;SDS011;65481;47.600;19.682;2023-12-14T12:25:53;12.45;;;5.75;;
76591;SDS011;65481;47.600;19.682;2023-12-14T12:30:55;13.15;;;5.55;;
76591;SDS011;65481;47.600;19.682;2023-12-14T12:35:56;16.20;;;6.03;;
76591;SDS011;65481;47.600;19.682;2023-12-14T12:40:57;10.43;;;5.18;;
76591;SDS011;65481;47.600;19.682;2023-12-14T12:46:00;13.80;;;5.85;;
76591;SDS011;65481;47.600;19.682;2023-12-14T12:51:02;12.63;;;5.65;;
76591;SDS011;65481;47.600;19.682;2023-12-14T12:56:03;12.23;;;6.03;;
76591;SDS011;65481;47.600;19.682;2023-12-14T13:01:05;13.57;;;5.80;;
76591;SDS011;65481;47.600;19.682;2023-12-14T13:06:06;13.23;;;6.10;;
76591;SDS011;65481;47.600;19.682;2023-12-14T13:11:07;13.20;;;5.97;;
76591;SDS011;65481;47.600;19.682;2023-12-14T13:16:08;10.68;;;5.18;;
76591;SDS011;65481;47.600;19.682;2023-12-14T13:21:11;15.98;;;7.05;;
76591;SDS011;65481;47.600;19.682;2023-12-14T13:26:12;17.73;;;6.95;;
76591;SDS011;65481;47.600;19.682;2023-12-14T13:31:13;14.10;;;7.40;;
76591;SDS011;65481;47.600;19.682;2023-12-14T13:36:14;15.60;;;7.13;;
76591;SDS011;65481;47.600;19.682;2023-12-14T13:41:15;13.55;;;6.50;;
76591;SDS011;65481;47.600;19.682;2023-12-14T13:46:16;13.05;;;6.45;;
76591;SDS011;65481;47.600;19.682;2023-12-14T13:51:16;18.90;;;8.30;;
76591;SDS011;65481;47.600;19.682;2023-12-14T13:56:18;32.75;;;13.88;;
76591;SDS011;65481;47.600;19.682;2023-12-14T14:01:19;50.92;;;18.67;;
76591;SDS011;65481;47.600;19.682;2023-12-14T14:06:20;33.05;;;13.75;;
76591;SDS011;65481;47.600;19.682;2023-12-14T14:11:23;37.30;;;14.77;;
76591;SDS011;65481;47.600;19.682;2023-12-14T14:16:24;28.95;;;13.43;;
76591;SDS011;65481;47.600;19.682;2023-12-14T14:21:26;25.77;;;12.63;;
76591;SDS011;65481;47.600;19.682;2023-12-14T14:26:27;26.70;;;10.30;;
76591;SDS011;65481;47.600;19.682;2023-12-14T14:31:28;21.92;;;11.63;;
76591;SDS011;65481;47.600;19.682;2023-12-14T14:36:36;18.45;;;9.27;;
76591;SDS011;65481;47.600;19.682;2023-12-14T14:41:37;24.10;;;10.68;;
76591;SDS011;65481;47.600;19.682;2023-12-14T14:46:38;16.08;;;8.52;;
76591;SDS011;65481;47.600;19.682;2023-12-14T14:51:42;29.70;;;11.68;;
76591;SDS011;65481;47.600;19.682;2023-12-14T14:56:43;24.33;;;11.02;;
76591;SDS011;65481;47.600;19.682;2023-12-14T15:01:44;34.40;;;13.15;;
76591;SDS011;65481;47.600;19.682;2023-12-14T15:06:48;39.65;;;17.25;;
76591;SDS011;65481;47.600;19.682;2023-12-14T15:11:49;33.67;;;15.30;;
76591;SDS011;65481;47.600;19.682;2023-12-14T15:16:50;28.90;;;12.85;;
76591;SDS011;65481;47.600;19.682;2023-12-14T15:21:52;32.75;;;13.82;;
76591;SDS011;65481;47.600;19.682;2023-12-14T15:26:56;42.63;;;16.10;;
76591;SDS011;65481;47.600;19.682;2023-12-14T15:31:57;54.10;;;20.95;;
76591;SDS011;65481;47.600;19.682;2023-12-14T15:36:58;42.78;;;16.40;;
76591;SDS011;65481;47.600;19.682;2023-12-14T15:41:59;36.65;;;16.33;;
76591;SDS011;65481;47.600;19.682;2023-12-14T15:47:01;52.30;;;21.20;;
76591;SDS011;65481;47.600;19.682;2023-12-14T15:52:02;94.25;;;34.47;;
76591;SDS011;65481;47.600;19.682;2023-12-14T15:57:05;95.13;;;35.55;;
76591;SDS011;65481;47.600;19.682;2023-12-14T16:02:06;66.93;;;25.90;;
76591;SDS011;65481;47.600;19.682;2023-12-14T16:07:07;54.30;;;24.02;;
76591;SDS011;65481;47.600;19.682;2023-12-14T16:12:07;62.72;;;25.35;;
76591;SDS011;65481;47.600;19.682;2023-12-14T16:17:09;36.33;;;17.58;;
76591;SDS011;65481;47.600;19.682;2023-12-14T16:22:10;27.65;;;14.20;;
76591;SDS011;65481;47.600;19.682;2023-12-14T16:27:11;25.15;;;12.85;;
76591;SDS011;65481;47.600;19.682;2023-12-14T16:32:14;23.60;;;11.88;;
76591;SDS011;65481;47.600;19.682;2023-12-14T16:37:15;32.30;;;14.65;;
76591;SDS011;65481;47.600;19.682;2023-12-14T16:42:17;86.05;;;26.30;;
76591;SDS011;65481;47.600;19.682;2023-12-14T16:47:18;82.72;;;30.35;;
76591;SDS011;65481;47.600;19.682;2023-12-14T16:52:19;50.20;;;20.60;;
76591;SDS011;65481;47.600;19.682;2023-12-14T16:57:20;54.50;;;21.20;;
76591;SDS011;65481;47.600;19.682;2023-12-14T17:02:23;116.88;;;37.60;;
76591;SDS011;65481;47.600;19.682;2023-12-14T17:07:24;56.25;;;24.77;;
76591;SDS011;65481;47.600;19.682;2023-12-14T17:12:26;37.72;;;18.63;;
76591;SDS011;65481;47.600;19.682;2023-12-14T17:17:27;42.80;;;20.23;;
76591;SDS011;65481;47.600;19.682;2023-12-14T17:22:33;50.42;;;23.17;;
76591;SDS011;65481;47.600;19.682;2023-12-14T17:27:36;49.83;;;20.80;;
76591;SDS011;65481;47.600;19.682;2023-12-14T17:32:38;46.03;;;20.27;;
76591;SDS011;65481;47.600;19.682;2023-12-14T17:37:40;41.45;;;18.88;;
76591;SDS011;65481;47.600;19.682;2023-12-14T17:42:41;42.65;;;19.52;;
76591;SDS011;65481;47.600;19.682;2023-12-14T17:47:42;54.42;;;21.65;;
76591;SDS011;65481;47.600;19.682;2023-12-14T17:52:43;49.22;;;20.58;;
76591;SDS011;65481;47.600;19.682;2023-12-14T17:57:44;49.03;;;20.63;;
76591;SDS011;65481;47.600;19.682;2023-12-14T18:02:44;55.45;;;22.95;;
76591;SDS011;65481;47.600;19.682;2023-12-14T18:07:46;43.83;;;21.30;;
76591;SDS011;65481;47.600;19.682;2023-12-14T18:12:48;46.28;;;20.15;;
76591;SDS011;65481;47.600;19.682;2023-12-14T18:17:50;49.28;;;20.70;;
76591;SDS011;65481;47.600;19.682;2023-12-14T18:22:50;62.30;;;24.27;;
76591;SDS011;65481;47.600;19.682;2023-12-14T18:27:53;47.15;;;19.70;;
76591;SDS011;65481;47.600;19.682;2023-12-14T18:32:55;61.42;;;26.25;;
76591;SDS011;65481;47.600;19.682;2023-12-14T18:37:57;66.32;;;26.65;;
76591;SDS011;65481;47.600;19.682;2023-12-14T18:42:58;74.50;;;31.15;;
76591;SDS011;65481;47.600;19.682;2023-12-14T18:47:59;64.63;;;25.67;;
76591;SDS011;65481;47.600;19.682;2023-12-14T18:53:00;62.08;;;24.42;;
76591;SDS011;65481;47.600;19.682;2023-12-14T18:58:04;60.88;;;24.83;;
76591;SDS011;65481;47.600;19.682;2023-12-14T19:03:07;59.45;;;24.00;;
76591;SDS011;65481;47.600;19.682;2023-12-14T19:08:09;55.00;;;24.42;;
76591;SDS011;65481;47.600;19.682;2023-12-14T19:13:11;68.00;;;27.42;;
76591;SDS011;65481;47.600;19.682;2023-12-14T19:18:13;57.85;;;23.55;;
76591;SDS011;65481;47.600;19.682;2023-12-14T19:23:14;41.03;;;17.13;;
76591;SDS011;65481;47.600;19.682;2023-12-14T19:28:16;33.83;;;15.43;;
76591;SDS011;65481;47.600;19.682;2023-12-14T19:33:16;33.33;;;15.02;;
76591;SDS011;65481;47.600;19.682;2023-12-14T19:38:20;37.88;;;14.75;;
76591;SDS011;65481;47.600;19.682;2023-12-14T19:43:22;24.40;;;10.85;;
76591;SDS011;65481;47.600;19.682;2023-12-14T19:48:26;28.05;;;11.98;;
76591;SDS011;65481;47.600;19.682;2023-12-14T19:53:29;22.42;;;10.57;;
76591;SDS011;65481;47.600;19.682;2023-12-14T19:58:31;32.85;;;13.25;;
76591;SDS011;65481;47.600;19.682;2023-12-14T20:03:34;52.75;;;19.45;;
76591;SDS011;65481;47.600;19.682;2023-12-14T20:08:37;25.48;;;13.55;;
76591;SDS011;65481;47.600;19.682;2023-12-14T20:13:38;28.73;;;12.25;;
76591;SDS011;65481;47.600;19.682;2023-12-14T20:18:40;31.20;;;13.23;;
76591;SDS011;65481;47.600;19.682;2023-12-14T20:23:41;33.75;;;16.02;;
76591;SDS011;65481;47.600;19.682;2023-12-14T20:28:42;34.97;;;18.15;;
76591;SDS011;65481;47.600;19.682;2023-12-14T20:33:45;35.80;;;18.35;;
76591;SDS011;65481;47.600;19.682;2023-12-14T20:38:46;47.38;;;20.38;;
76591;SDS011;65481;47.600;19.682;2023-12-14T20:43:47;37.38;;;18.30;;
76591;SDS011;65481;47.600;19.682;2023-12-14T20:48:47;47.10;;;20.52;;
76591;SDS011;65481;47.600;19.682;2023-12-14T20:53:48;45.83;;;21.90;;
76591;SDS011;65481;47.600;19.682;2023-12-14T20:58:50;48.63;;;23.50;;
76591;SDS011;65481;47.600;19.682;2023-12-14T21:03:51;44.63;;;19.70;;
76591;SDS011;65481;47.600;19.682;2023-12-14T21:08:53;44.00;;;21.92;;
76591;SDS011;65481;47.600;19.682;2023-12-14T21:13:54;41.88;;;19.52;;
76591;SDS011;65481;47.600;19.682;2023-12-14T21:18:55;42.40;;;19.55;;
76591;SDS011;65481;47.600;19.682;2023-12-14T21:23:56;48.95;;;19.48;;
76591;SDS011;65481;47.600;19.682;2023-12-14T21:28:57;37.17;;;17.75;;
76591;SDS011;65481;47.600;19.682;2023-12-14T21:33:58;37.13;;;17.40;;
76591;SDS011;65481;47.600;19.682;2023-12-14T21:38:59;39.55;;;17.83;;
76591;SDS011;65481;47.600;19.682;2023-12-14T21:44:01;42.13;;;18.13;;
76591;SDS011;65481;47.600;19.682;2023-12-14T21:49:02;34.58;;;17.65;;
76591;SDS011;65481;47.600;19.682;2023-12-14T21:54:03;35.45;;;17.60;;
76591;SDS011;65481;47.600;19.682;2023-12-14T21:59:03;40.47;;;20.65;;
76591;SDS011;65481;47.600;19.682;2023-12-14T22:04:04;38.30;;;16.95;;
76591;SDS011;65481;47.600;19.682;2023-12-14T22:09:05;39.42;;;17.17;;
76591;SDS011;65481;47.600;19.682;2023-12-14T22:14:06;39.30;;;18.33;;
76591;SDS011;65481;47.600;19.682;2023-12-14T22:19:07;37.05;;;17.08;;
76591;SDS011;65481;47.600;19.682;2023-12-14T22:24:08;33.65;;;14.35;;
76591;SDS011;65481;47.600;19.682;2023-12-14T22:29:09;25.10;;;12.10;;
76591;SDS011;65481;47.600;19.682;2023-12-14T22:34:10;28.65;;;13.30;;
76591;SDS011;65481;47.600;19.682;2023-12-14T22:39:11;29.67;;;14.48;;
76591;SDS011;65481;47.600;19.682;2023-12-14T22:44:12;24.17;;;13.15;;
76591;SDS011;65481;47.600;19.682;2023-12-14T22:49:13;30.33;;;13.52;;
76591;SDS011;65481;47.600;19.682;2023-12-14T22:54:14;30.88;;;15.80;;
76591;SDS011;65481;47.600;19.682;2023-12-14T22:59:15;33.72;;;16.88;;
76591;SDS011;65481;47.600;19.682;2023-12-14T23:04:17;43.70;;;19.63;;
76591;SDS011;65481;47.600;19.682;2023-12-14T23:09:19;53.08;;;21.65;;
76591;SDS011;65481;47.600;19.682;2023-12-14T23:14:20;30.33;;;15.13;;
76591;SDS011;65481;47.600;19.682;2023-12-14T23:19:21;30.27;;;13.45;;
76591;SDS011;65481;47.600;19.682;2023-12-14T23:24:23;39.60;;;15.73;;
76591;SDS011;65481;47.600;19.682;2023-12-14T23:29:24;40.97;;;18.52;;
76591;SDS011;65481;47.600;19.682;2023-12-14T23:34:25;27.00;;;12.98;;
76591;SDS011;65481;47.600;19.682;2023-12-14T23:39:25;44.78;;;17.90;;
76591;SDS011;65481;47.600;19.682;2023-12-14T23:44:26;48.22;;;19.77;;
76591;SDS011;65481;47.600;19.682;2023-12-14T23:49:28;49.67;;;19.48;;
76591;SDS011;65481;47.600;19.682;2023-12-14T23:54:29;30.17;;;15.57;;
76591;SDS011;65481;47.600;19.682;2023-12-14T23:59:32;29.80;;;13.20;;
